Time,TemperatureF,DewpointF,PressureIn,WindDirection,WindDirectionDegrees,WindSpeedMPH,WindSpeedGustMPH,Humidity,HourlyPrecipIn,Conditions,Clouds,dailyrainin,SolarRadiationWatts/m^2,SoftwareType,DateUTC
2013-01-21 00:02:00,25.0,8.0,-100.00,NNE,25,2.0,5.0,47,0.00,,,0.00,0.000000,,2013-01-21 07:02:00,
2013-01-21 00:11:00,25.0,8.0,-100.00,NNE,25,2.0,5.0,47,0.00,,,0.00,0.000000,,2013-01-21 07:11:00,
2013-01-21 00:12:00,27.0,9.0,-100.00,NNE,12,4.0,6.0,45,0.00,,,0.00,0.000000,,2013-01-21 07:12:00,
2013-01-21 00:33:00,27.0,9.0,-100.00,NNE,12,4.0,6.0,45,0.00,,,0.00,0.000000,,2013-01-21 07:33:00,
2013-01-21 00:42:00,27.0,9.0,-100.00,NNE,12,4.0,6.0,45,0.00,,,0.00,0.000000,,2013-01-21 07:42:00,
2013-01-21 00:53:00,27.0,9.0,-100.00,NNE,12,4.0,6.0,45,0.00,,,0.00,0.000000,,2013-01-21 07:53:00,
2013-01-21 01:12:00,26.0,7.0,-100.00,NNE,22,4.0,5.0,44,-99.99,,,0.00,0.000000,,2013-01-21 08:12:00,
2013-01-21 01:43:00,26.0,7.0,-100.00,NNE,22,4.0,5.0,44,-99.99,,,0.00,0.000000,,2013-01-21 08:43:00,
2013-01-21 01:53:00,26.0,7.0,-100.00,NNE,22,4.0,5.0,44,-99.99,,,0.00,0.000000,,2013-01-21 08:53:00,
2013-01-21 02:02:00,26.0,7.0,-100.00,NNE,22,4.0,5.0,44,-99.99,,,0.00,0.000000,,2013-01-21 09:02:00,
2013-01-21 02:43:00,26.0,7.0,-100.00,SE,146,2.0,4.0,44,-99.99,,,0.00,0.000000,,2013-01-21 09:43:00,
2013-01-21 02:53:00,26.0,7.0,-100.00,SE,146,2.0,4.0,44,-99.99,,,0.00,0.000000,,2013-01-21 09:53:00,
2013-01-21 03:02:00,26.0,7.0,-100.00,SE,146,2.0,4.0,44,-99.99,,,0.00,0.000000,,2013-01-21 10:02:00,
2013-01-21 03:33:00,24.0,7.0,-100.00,NE,55,1.0,4.0,47,-99.99,,,0.00,0.000000,,2013-01-21 10:33:00,
2013-01-21 03:43:00,24.0,7.0,-100.00,NE,55,1.0,4.0,47,-99.99,,,0.00,0.000000,,2013-01-21 10:43:00,
2013-01-21 03:52:00,24.0,7.0,-100.00,NE,55,1.0,4.0,47,-99.99,,,0.00,0.000000,,2013-01-21 10:52:00,
2013-01-21 04:02:00,24.0,7.0,-100.00,NE,55,1.0,4.0,47,-99.99,,,0.00,0.000000,,2013-01-21 11:02:00,
2013-01-21 04:11:00,24.0,7.0,-100.00,NE,55,1.0,4.0,47,-99.99,,,0.00,0.000000,,2013-01-21 11:11:00,
2013-01-21 04:12:00,25.0,6.0,-100.00,ENE,75,3.0,4.0,44,0.00,,,0.00,0.000000,,2013-01-21 11:12:00,
2013-01-21 04:33:00,25.0,6.0,-100.00,ENE,75,3.0,4.0,44,0.00,,,0.00,0.000000,,2013-01-21 11:33:00,
2013-01-21 04:43:00,25.0,6.0,-100.00,ENE,75,3.0,4.0,44,0.00,,,0.00,0.000000,,2013-01-21 11:43:00,
2013-01-21 05:43:00,23.0,8.0,-100.00,ESE,114,5.0,6.0,52,0.00,,,0.00,0.000000,,2013-01-21 12:43:00,
2013-01-21 05:53:00,23.0,8.0,-100.00,ESE,114,5.0,6.0,52,0.00,,,0.00,0.000000,,2013-01-21 12:53:00,
2013-01-21 06:33:00,27.0,6.0,-100.00,SSE,166,3.0,6.0,40,0.00,,,-99.99,0.000000,,2013-01-21 13:33:00,
2013-01-21 07:33:00,25.0,8.0,-100.00,SSE,152,3.0,4.0,47,-99.99,,,0.00,0.000000,,2013-01-21 14:33:00,
2013-01-21 07:43:00,25.0,8.0,-100.00,SSE,152,3.0,4.0,47,-99.99,,,0.00,0.000000,,2013-01-21 14:43:00,
2013-01-21 07:53:00,25.0,8.0,-100.00,SSE,152,3.0,4.0,47,-99.99,,,0.00,0.000000,,2013-01-21 14:53:00,
2013-01-21 08:03:00,25.0,8.0,-100.00,SSE,152,3.0,4.0,47,-99.99,,,0.00,0.000000,,2013-01-21 15:03:00,
2013-01-21 08:33:00,30.0,7.0,-100.00,SE,144,6.0,8.0,37,-99.99,,,0.00,49.000000,,2013-01-21 15:33:00,
2013-01-21 09:03:00,30.0,7.0,-100.00,SE,144,6.0,8.0,37,-99.99,,,0.00,49.000000,,2013-01-21 16:03:00,
2013-01-21 09:11:00,30.0,7.0,-100.00,SE,144,6.0,8.0,37,-99.99,,,0.00,49.000000,,2013-01-21 16:11:00,
2013-01-21 09:12:00,31.0,7.0,-100.00,WNW,298,3.0,8.0,36,-99.99,,,0.00,213.000000,,2013-01-21 16:12:00,
2013-01-21 09:33:00,31.0,7.0,-100.00,WNW,298,3.0,8.0,36,-99.99,,,0.00,213.000000,,2013-01-21 16:33:00,
2013-01-21 09:43:00,31.0,7.0,-100.00,WNW,298,3.0,8.0,36,-99.99,,,0.00,213.000000,,2013-01-21 16:43:00,
2013-01-21 09:53:00,31.0,7.0,-100.00,WNW,298,3.0,8.0,36,-99.99,,,0.00,213.000000,,2013-01-21 16:53:00,
2013-01-21 10:02:00,31.0,7.0,-100.00,WNW,298,3.0,8.0,36,-99.99,,,0.00,213.000000,,2013-01-21 17:02:00,
2013-01-21 10:33:00,41.0,13.0,-100.00,South,176,2.0,6.0,32,0.00,,,0.00,364.000000,,2013-01-21 17:33:00,
2013-01-21 10:43:00,41.0,13.0,-100.00,South,176,2.0,6.0,32,0.00,,,0.00,364.000000,,2013-01-21 17:43:00,
2013-01-21 10:53:00,41.0,13.0,-100.00,South,176,2.0,6.0,32,0.00,,,0.00,364.000000,,2013-01-21 17:53:00,
2013-01-21 11:02:00,41.0,13.0,-100.00,South,176,2.0,6.0,32,0.00,,,0.00,364.000000,,2013-01-21 18:02:00,
2013-01-21 11:12:00,42.0,14.0,-100.00,NNE,12,2.0,7.0,31,0.00,,,-99.99,483.000000,,2013-01-21 18:12:00,
2013-01-21 11:33:00,42.0,14.0,-100.00,NNE,12,2.0,7.0,31,0.00,,,-99.99,483.000000,,2013-01-21 18:33:00,
2013-01-21 11:43:00,42.0,14.0,-100.00,NNE,12,2.0,7.0,31,0.00,,,-99.99,483.000000,,2013-01-21 18:43:00,
2013-01-21 11:53:00,42.0,14.0,-100.00,NNE,12,2.0,7.0,31,0.00,,,-99.99,483.000000,,2013-01-21 18:53:00,
2013-01-21 12:03:00,42.0,14.0,-100.00,NNE,12,2.0,7.0,31,0.00,,,-99.99,483.000000,,2013-01-21 19:03:00,
2013-01-21 12:12:00,42.0,13.0,-100.00,SW,233,5.0,8.0,30,-99.99,,,0.00,550.000000,,2013-01-21 19:12:00,
2013-01-21 12:33:00,42.0,13.0,-100.00,SW,233,5.0,8.0,30,-99.99,,,0.00,550.000000,,2013-01-21 19:33:00,
2013-01-21 12:43:00,42.0,13.0,-100.00,SW,233,5.0,8.0,30,-99.99,,,0.00,550.000000,,2013-01-21 19:43:00,
2013-01-21 12:53:00,42.0,13.0,-100.00,SW,233,5.0,8.0,30,-99.99,,,0.00,550.000000,,2013-01-21 19:53:00,
2013-01-21 13:02:00,42.0,13.0,-100.00,SW,233,5.0,8.0,30,-99.99,,,0.00,550.000000,,2013-01-21 20:02:00,
2013-01-21 14:12:00,40.0,13.0,-100.00,South,179,6.0,10.0,32,-99.99,,,0.00,504.000000,,2013-01-21 21:12:00,
2013-01-21 14:33:00,40.0,13.0,-100.00,South,179,6.0,10.0,32,-99.99,,,0.00,504.000000,,2013-01-21 21:33:00,
2013-01-21 14:43:00,40.0,13.0,-100.00,South,179,6.0,10.0,32,-99.99,,,0.00,504.000000,,2013-01-21 21:43:00,
2013-01-21 14:53:00,40.0,13.0,-100.00,South,179,6.0,10.0,32,-99.99,,,0.00,504.000000,,2013-01-21 21:53:00,
2013-01-21 15:03:00,40.0,13.0,-100.00,South,179,6.0,10.0,32,-99.99,,,0.00,504.000000,,2013-01-21 22:03:00,
2013-01-21 15:12:00,41.0,15.0,-100.00,SW,214,4.0,10.0,35,0.00,,,0.00,326.000000,,2013-01-21 22:12:00,
2013-01-21 15:33:00,41.0,15.0,-100.00,SW,214,4.0,10.0,35,0.00,,,0.00,326.000000,,2013-01-21 22:33:00,
2013-01-21 15:43:00,41.0,15.0,-100.00,SW,214,4.0,10.0,35,0.00,,,0.00,326.000000,,2013-01-21 22:43:00,
2013-01-21 15:53:00,41.0,15.0,-100.00,SW,214,4.0,10.0,35,0.00,,,0.00,326.000000,,2013-01-21 22:53:00,
2013-01-21 16:03:00,41.0,15.0,-100.00,SW,214,4.0,10.0,35,0.00,,,0.00,326.000000,,2013-01-21 23:03:00,
2013-01-21 16:12:00,35.0,15.0,-100.00,SSW,207,4.0,9.0,43,0.00,,,-99.99,87.000000,,2013-01-21 23:12:00,
2013-01-21 16:33:00,35.0,15.0,-100.00,SSW,207,4.0,9.0,43,0.00,,,-99.99,87.000000,,2013-01-21 23:33:00,
2013-01-21 16:43:00,35.0,15.0,-100.00,SSW,207,4.0,9.0,43,0.00,,,-99.99,87.000000,,2013-01-21 23:43:00,
2013-01-21 16:53:00,35.0,15.0,-100.00,SSW,207,4.0,9.0,43,0.00,,,-99.99,87.000000,,2013-01-21 23:53:00,
2013-01-21 17:02:00,35.0,15.0,-100.00,SSW,207,4.0,9.0,43,0.00,,,-99.99,87.000000,,2013-01-22 00:02:00,
2013-01-21 17:12:00,30.0,13.0,-100.00,South,185,4.0,6.0,49,0.00,,,0.00,31.000000,,2013-01-22 00:12:00,
2013-01-21 17:33:00,30.0,13.0,-100.00,South,185,4.0,6.0,49,0.00,,,0.00,31.000000,,2013-01-22 00:33:00,
2013-01-21 17:43:00,30.0,13.0,-100.00,South,185,4.0,6.0,49,0.00,,,0.00,31.000000,,2013-01-22 00:43:00,
2013-01-21 17:53:00,30.0,13.0,-100.00,South,185,4.0,6.0,49,0.00,,,0.00,31.000000,,2013-01-22 00:53:00,
2013-01-21 18:02:00,30.0,13.0,-100.00,South,185,4.0,6.0,49,0.00,,,0.00,31.000000,,2013-01-22 01:02:00,
2013-01-21 19:12:00,29.0,12.0,-100.00,NNW,344,5.0,5.0,49,-99.99,,,0.00,0.000000,,2013-01-22 02:12:00,
2013-01-21 19:33:00,29.0,12.0,-100.00,NNW,344,5.0,5.0,49,-99.99,,,0.00,0.000000,,2013-01-22 02:33:00,
2013-01-21 19:43:00,29.0,12.0,-100.00,NNW,344,5.0,5.0,49,-99.99,,,0.00,0.000000,,2013-01-22 02:43:00,
2013-01-21 19:53:00,29.0,12.0,-100.00,NNW,344,5.0,5.0,49,-99.99,,,0.00,0.000000,,2013-01-22 02:53:00,
2013-01-21 20:02:00,29.0,12.0,-100.00,NNW,344,5.0,5.0,49,-99.99,,,0.00,0.000000,,2013-01-22 03:02:00,
2013-01-21 20:42:00,30.0,13.0,-100.00,North,5,4.0,8.0,49,0.00,,,0.00,0.000000,,2013-01-22 03:42:00,
2013-01-21 20:52:00,30.0,13.0,-100.00,North,5,4.0,8.0,49,0.00,,,0.00,0.000000,,2013-01-22 03:52:00,
2013-01-21 21:02:00,30.0,13.0,-100.00,North,5,4.0,8.0,49,0.00,,,0.00,0.000000,,2013-01-22 04:02:00,
2013-01-21 21:12:00,29.0,11.0,-100.00,NNE,31,3.0,5.0,47,-99.99,,,0.00,0.000000,,2013-01-22 04:12:00,
2013-01-21 21:33:00,29.0,11.0,-100.00,NNE,31,3.0,5.0,47,-99.99,,,0.00,0.000000,,2013-01-22 04:33:00,
2013-01-21 21:42:00,29.0,11.0,-100.00,NNE,31,3.0,5.0,47,-99.99,,,0.00,0.000000,,2013-01-22 04:42:00,
2013-01-21 21:52:00,29.0,11.0,-100.00,NNE,31,3.0,5.0,47,-99.99,,,0.00,0.000000,,2013-01-22 04:52:00,
2013-01-21 22:03:00,29.0,11.0,-100.00,NNE,31,3.0,5.0,47,-99.99,,,0.00,0.000000,,2013-01-22 05:03:00,
2013-01-21 22:33:00,30.0,11.0,-100.00,North,5,3.0,5.0,44,0.00,,,0.00,0.000000,,2013-01-22 05:33:00,
2013-01-21 22:43:00,30.0,11.0,-100.00,North,5,3.0,5.0,44,0.00,,,0.00,0.000000,,2013-01-22 05:43:00,
2013-01-21 22:53:00,30.0,11.0,-100.00,North,5,3.0,5.0,44,0.00,,,0.00,0.000000,,2013-01-22 05:53:00,
2013-01-21 23:02:00,30.0,11.0,-100.00,North,5,3.0,5.0,44,0.00,,,0.00,0.000000,,2013-01-22 06:02:00,
2013-01-21 23:33:00,30.0,11.0,-100.00,North,350,3.0,4.0,44,-99.99,,,0.00,0.000000,,2013-01-22 06:33:00,
2013-01-21 23:43:00,30.0,11.0,-100.00,North,350,3.0,4.0,44,-99.99,,,0.00,0.000000,,2013-01-22 06:43:00,
2013-01-21 23:52:00,30.0,11.0,-100.00,North,350,3.0,4.0,44,-99.99,,,0.00,0.000000,,2013-01-22 06:52:00,